Time;durP1;ratioP1;P1;durP2;ratioP2;P2;SDS_P1;SDS_P2;PMS_P1;PMS_P2;Temp;Humidity;BMP_temperature;BMP_pressure;BME280_temperature;BME280_humidity;BME280_pressure;Samples;Min_cycle;Max_cycle;Signal;HPM_P1;HPM_P2
2022/03/05 00:00:35;;;;;;;15.40;7.10;;;3.00;99.90;;;;;;5071529;28;20214;-70
2022/03/05 00:03:01;;;;;;;11.93;7.07;;;2.90;99.90;;;;;;5071864;28;20211;-75
2022/03/05 00:05:27;;;;;;;13.97;8.07;;;2.80;99.90;;;;;;5054601;28;20211;-73
2022/03/05 00:07:53;;;;;;;16.10;7.50;;;2.80;99.90;;;;;;5051871;28;20269;-75
2022/03/05 00:10:19;;;;;;;15.00;7.00;;;2.80;99.90;;;;;;5072286;28;20717;-74
2022/03/05 00:12:49;;;;;;;15.23;8.00;;;2.70;99.90;;;;;;5066117;28;20217;-73
2022/03/05 00:15:16;;;;;;;13.03;7.20;;;2.70;99.90;;;;;;5072192;28;20205;-74
2022/03/05 00:17:42;;;;;;;11.87;6.57;;;2.60;99.90;;;;;;5071172;28;20269;-74
2022/03/05 00:20:08;;;;;;;13.97;6.77;;;2.60;99.90;;;;;;5070874;28;20251;-70
2022/03/05 00:22:34;;;;;;;14.13;6.83;;;2.60;99.90;;;;;;5071212;28;20207;-69
2022/03/05 00:24:59;;;;;;;11.27;6.73;;;2.50;99.90;;;;;;5067827;28;20233;-72
2022/03/05 00:27:25;;;;;;;9.57;6.40;;;2.60;99.90;;;;;;5060986;28;20211;-76
2022/03/05 00:29:52;;;;;;;11.27;6.67;;;2.50;99.90;;;;;;5071416;28;20232;-74
2022/03/05 00:32:18;;;;;;;12.87;6.20;;;2.50;99.90;;;;;;5056229;28;20313;-74
2022/03/05 00:34:44;;;;;;;13.93;6.60;;;2.50;99.90;;;;;;5055998;28;20240;-74
2022/03/05 00:37:10;;;;;;;12.23;5.83;;;2.40;99.90;;;;;;5070151;28;20676;-73
2022/03/05 00:39:36;;;;;;;10.87;5.60;;;2.40;99.90;;;;;;5069497;28;20297;-73
2022/03/05 00:42:02;;;;;;;12.77;6.13;;;2.40;99.90;;;;;;5070597;28;20336;-68
2022/03/05 00:44:28;;;;;;;9.47;5.70;;;2.40;99.90;;;;;;5070970;28;20569;-73
2022/03/05 00:46:55;;;;;;;11.13;5.30;;;2.40;99.90;;;;;;5054534;28;20262;-76
2022/03/05 00:49:20;;;;;;;10.40;5.43;;;2.30;99.90;;;;;;5052320;28;20210;-73
2022/03/05 00:51:46;;;;;;;9.60;5.10;;;2.30;99.90;;;;;;5072312;28;20289;-72
2022/03/05 00:54:11;;;;;;;7.53;4.73;;;2.30;99.90;;;;;;5070327;28;20209;-74
2022/03/05 00:56:37;;;;;;;10.60;5.37;;;2.20;99.90;;;;;;5072027;28;20209;-76
2022/03/05 00:59:03;;;;;;;9.90;4.60;;;2.30;99.90;;;;;;5070866;28;20285;-71
2022/03/05 01:01:28;;;;;;;10.90;5.40;;;2.20;99.90;;;;;;5043484;28;20565;-73
2022/03/05 01:03:54;;;;;;;11.03;5.10;;;2.20;99.90;;;;;;5063522;28;20690;-72
2022/03/05 01:06:19;;;;;;;10.53;5.13;;;2.20;99.90;;;;;;5070923;28;20621;-72
2022/03/05 01:08:44;;;;;;;9.90;5.10;;;2.20;99.90;;;;;;5049037;28;20212;-74
2022/03/05 01:11:15;;;;;;;12.90;4.93;;;2.20;99.90;;;;;;5048062;28;20542;-74
2022/03/05 01:13:41;;;;;;;10.83;4.73;;;2.10;99.90;;;;;;5039829;28;20373;-75
2022/03/05 01:16:06;;;;;;;8.50;4.70;;;2.10;99.90;;;;;;5046554;28;20344;-73
2022/03/05 01:18:31;;;;;;;7.43;4.70;;;2.20;99.90;;;;;;5051142;28;20199;-72
2022/03/05 01:20:57;;;;;;;10.43;4.97;;;2.10;99.90;;;;;;5070366;28;20577;-72
2022/03/05 01:23:22;;;;;;;13.83;4.93;;;2.10;99.90;;;;;;5051953;28;20177;-73
2022/03/05 01:25:48;;;;;;;9.10;4.43;;;2.10;99.90;;;;;;5070656;28;20175;-73
2022/03/05 01:28:13;;;;;;;9.93;4.83;;;2.10;99.90;;;;;;5051618;28;20717;-74
2022/03/05 01:30:39;;;;;;;12.27;4.77;;;2.10;99.90;;;;;;5070107;28;20264;-72
2022/03/05 01:33:05;;;;;;;11.43;5.67;;;2.10;99.90;;;;;;5070227;28;20208;-72
2022/03/05 01:35:30;;;;;;;9.57;5.40;;;2.10;99.90;;;;;;5069672;28;20292;-74
2022/03/05 01:37:56;;;;;;;12.37;4.67;;;2.10;99.90;;;;;;5067365;28;20717;-74
2022/03/05 01:40:22;;;;;;;10.40;4.93;;;2.10;99.90;;;;;;5052033;28;20262;-72
2022/03/05 01:42:48;;;;;;;11.67;5.23;;;2.00;99.90;;;;;;5070179;28;20271;-72
2022/03/05 01:45:13;;;;;;;12.73;5.80;;;2.00;99.90;;;;;;5069997;28;20197;-73
2022/03/05 01:47:40;;;;;;;11.83;5.53;;;2.00;99.90;;;;;;5055233;28;20202;-70
2022/03/05 01:50:07;;;;;;;10.80;6.37;;;2.00;99.90;;;;;;5053564;28;20242;-71
2022/03/05 01:52:32;;;;;;;12.60;5.70;;;2.00;99.90;;;;;;5072782;28;20182;-72
2022/03/05 01:54:58;;;;;;;12.73;5.33;;;2.00;99.90;;;;;;5070028;28;20282;-71
2022/03/05 01:57:23;;;;;;;11.40;5.23;;;2.00;99.90;;;;;;5069563;28;20221;-71
2022/03/05 01:59:49;;;;;;;9.20;5.13;;;1.90;99.90;;;;;;5065435;28;20206;-71
2022/03/05 02:02:15;;;;;;;9.53;6.10;;;1.90;99.90;;;;;;5065729;28;20230;-72
2022/03/05 02:04:40;;;;;;;10.90;5.10;;;1.90;99.90;;;;;;5052394;28;20279;-72
2022/03/05 02:07:06;;;;;;;15.63;6.00;;;1.90;99.90;;;;;;5072911;28;20217;-73
2022/03/05 02:09:32;;;;;;;13.97;5.73;;;1.90;99.90;;;;;;5070863;28;20335;-73
2022/03/05 02:11:57;;;;;;;13.50;5.70;;;1.90;99.90;;;;;;5067946;28;20218;-72
2022/03/05 02:14:23;;;;;;;11.03;5.40;;;1.80;99.90;;;;;;5073440;28;20186;-72
2022/03/05 02:16:48;;;;;;;10.43;5.37;;;1.80;99.90;;;;;;5056212;28;20576;-72
2022/03/05 02:19:14;;;;;;;12.73;5.77;;;1.80;99.90;;;;;;5072520;28;20217;-74
2022/03/05 02:21:40;;;;;;;9.17;5.90;;;1.80;99.90;;;;;;5073513;28;20207;-73
2022/03/05 02:24:06;;;;;;;9.73;5.57;;;1.80;99.90;;;;;;5073175;28;20317;-77
2022/03/05 02:26:31;;;;;;;14.63;6.17;;;1.80;99.90;;;;;;5055777;28;20297;-76
2022/03/05 02:28:57;;;;;;;12.93;6.20;;;1.70;99.90;;;;;;5061272;28;20358;-76
2022/03/05 02:31:23;;;;;;;9.40;5.67;;;1.80;99.90;;;;;;5055011;28;20215;-75
2022/03/05 02:33:52;;;;;;;11.43;6.07;;;1.80;99.90;;;;;;5037751;28;20228;-76
2022/03/05 02:36:19;;;;;;;9.10;5.80;;;1.70;99.90;;;;;;5040984;28;20226;-75
2022/03/05 02:38:44;;;;;;;10.80;5.87;;;1.70;99.90;;;;;;5056007;28;20268;-75
2022/03/05 02:41:09;;;;;;;10.77;6.73;;;1.70;99.90;;;;;;5057723;28;20652;-76
2022/03/05 02:43:35;;;;;;;8.37;5.90;;;1.70;99.90;;;;;;5043106;28;20210;-76
2022/03/05 02:46:00;;;;;;;16.03;6.73;;;1.70;99.90;;;;;;5039396;28;20209;-76
2022/03/05 02:48:26;;;;;;;12.33;6.07;;;1.60;99.90;;;;;;5045093;28;20225;-76
2022/03/05 02:50:52;;;;;;;9.30;5.57;;;1.60;99.90;;;;;;5042933;28;20211;-75
2022/03/05 02:53:18;;;;;;;11.27;5.90;;;1.60;99.90;;;;;;5062258;28;20221;-74
2022/03/05 02:55:44;;;;;;;11.70;6.47;;;1.50;99.90;;;;;;5058325;28;20201;-76
2022/03/05 02:58:10;;;;;;;13.07;6.33;;;1.60;99.90;;;;;;5056357;28;20196;-74
2022/03/05 03:00:36;;;;;;;13.03;5.97;;;1.60;99.90;;;;;;5063807;28;20203;-76
2022/03/05 03:03:02;;;;;;;11.83;6.50;;;1.60;99.90;;;;;;5043651;28;20215;-75
2022/03/05 03:05:27;;;;;;;11.53;5.77;;;1.50;99.90;;;;;;5040190;28;20206;-76
2022/03/05 03:07:53;;;;;;;12.70;6.70;;;1.50;99.90;;;;;;5070316;28;20689;-74
2022/03/05 03:10:19;;;;;;;12.30;5.63;;;1.50;99.90;;;;;;5043365;28;20305;-75
2022/03/05 03:12:44;;;;;;;11.13;6.00;;;1.50;99.90;;;;;;5060352;28;20230;-76
2022/03/05 03:15:13;;;;;;;9.90;5.70;;;1.40;99.90;;;;;;5071014;28;20220;-76
2022/03/05 03:17:46;;;;;;;12.43;5.87;;;1.40;99.90;;;;;;5069146;28;20306;-76
2022/03/05 03:20:14;;;;;;;14.50;6.60;;;1.40;99.90;;;;;;5058669;28;20645;-75
2022/03/05 03:22:39;;;;;;;13.53;6.10;;;1.40;99.90;;;;;;5042169;28;20196;-76
2022/03/05 03:25:06;;;;;;;11.70;6.30;;;1.40;99.90;;;;;;5062867;28;20215;-77
2022/03/05 03:27:31;;;;;;;11.63;5.70;;;1.40;99.90;;;;;;5041489;28;20659;-76
2022/03/05 03:29:57;;;;;;;12.20;5.47;;;1.40;99.90;;;;;;5057405;28;20216;-77
2022/03/05 03:32:22;;;;;;;15.30;6.63;;;1.40;99.90;;;;;;5050979;28;20244;-76
2022/03/05 03:34:48;;;;;;;13.77;6.10;;;1.40;99.90;;;;;;5074448;28;20203;-76
2022/03/05 03:37:13;;;;;;;16.13;6.97;;;1.30;99.90;;;;;;5071574;28;20200;-76
2022/03/05 03:39:39;;;;;;;9.77;5.83;;;1.30;99.90;;;;;;5070746;28;20700;-76
2022/03/05 03:42:04;;;;;;;15.37;6.20;;;1.20;99.90;;;;;;5073108;28;20234;-75
2022/03/05 03:44:30;;;;;;;16.13;6.73;;;1.20;99.90;;;;;;5073458;28;20243;-75
2022/03/05 03:46:57;;;;;;;14.47;5.60;;;1.20;99.90;;;;;;5074148;28;20196;-75
2022/03/05 03:49:22;;;;;;;13.47;6.37;;;1.10;99.90;;;;;;5046058;28;20235;-76
2022/03/05 03:51:48;;;;;;;11.53;6.03;;;1.10;99.90;;;;;;5046833;28;20238;-75
2022/03/05 03:54:14;;;;;;;14.83;6.67;;;1.10;99.90;;;;;;5056151;28;20226;-75
2022/03/05 03:56:40;;;;;;;12.03;6.67;;;1.00;99.90;;;;;;5073063;28;20278;-75
2022/03/05 03:59:05;;;;;;;11.53;5.63;;;1.00;99.90;;;;;;5072602;28;20692;-75
2022/03/05 04:01:31;;;;;;;11.37;5.97;;;1.00;99.90;;;;;;5055686;28;20188;-75
2022/03/05 04:03:57;;;;;;;15.30;5.90;;;1.00;99.90;;;;;;5073700;28;20203;-74
2022/03/05 04:06:22;;;;;;;12.70;6.67;;;1.00;99.90;;;;;;5055242;28;20211;-74
2022/03/05 04:08:48;;;;;;;12.23;6.60;;;0.90;99.90;;;;;;5072395;28;20223;-75
2022/03/05 04:11:18;;;;;;;14.93;6.13;;;0.90;99.90;;;;;;5055280;28;20240;-74
2022/03/05 04:13:46;;;;;;;12.00;6.63;;;1.00;99.90;;;;;;5055421;28;20172;-75
2022/03/05 04:16:12;;;;;;;14.50;6.90;;;1.00;99.90;;;;;;5053123;28;20228;-76
2022/03/05 04:18:38;;;;;;;16.00;6.43;;;1.00;99.90;;;;;;5053976;28;20302;-75
2022/03/05 04:21:05;;;;;;;11.63;6.13;;;1.00;99.90;;;;;;5040262;28;20311;-76
2022/03/05 04:23:31;;;;;;;12.73;5.87;;;1.10;99.90;;;;;;5036621;28;20210;-76
2022/03/05 04:25:56;;;;;;;12.90;6.53;;;1.10;99.90;;;;;;5047121;28;20271;-75
2022/03/05 04:28:22;;;;;;;14.23;6.60;;;1.00;99.90;;;;;;5043839;28;20721;-76
2022/03/05 04:30:47;;;;;;;12.87;6.07;;;1.00;99.90;;;;;;5063797;28;20206;-76
2022/03/05 04:33:13;;;;;;;12.87;6.60;;;0.90;99.90;;;;;;5047592;28;20612;-76
2022/03/05 04:35:39;;;;;;;16.40;7.07;;;0.90;99.90;;;;;;5054296;28;20220;-76
2022/03/05 04:38:04;;;;;;;12.60;6.53;;;0.90;99.90;;;;;;5053353;28;20179;-76
2022/03/05 04:40:30;;;;;;;12.97;6.40;;;0.90;99.90;;;;;;5054467;28;20711;-77
2022/03/05 04:42:56;;;;;;;14.17;6.67;;;0.90;99.90;;;;;;5071324;28;20216;-77
2022/03/05 04:45:21;;;;;;;10.57;6.60;;;0.80;99.90;;;;;;5047875;28;20259;-75
2022/03/05 04:47:47;;;;;;;13.77;6.27;;;0.80;99.90;;;;;;5070892;28;20204;-77
2022/03/05 04:50:12;;;;;;;21.47;7.20;;;0.80;99.90;;;;;;5045693;28;20205;-77
2022/03/05 04:52:38;;;;;;;14.27;6.43;;;0.70;99.90;;;;;;5053048;28;20247;-76
2022/03/05 04:55:06;;;;;;;10.70;6.47;;;0.70;99.90;;;;;;5065698;28;20220;-76
2022/03/05 04:57:32;;;;;;;15.07;7.67;;;0.80;99.90;;;;;;5051832;28;20249;-76
2022/03/05 04:59:57;;;;;;;14.73;7.30;;;0.70;99.90;;;;;;5070742;28;20591;-76
2022/03/05 05:02:23;;;;;;;11.97;6.40;;;0.70;99.90;;;;;;5066850;28;20184;-74
2022/03/05 05:04:48;;;;;;;14.70;6.87;;;0.70;99.90;;;;;;5064287;28;20194;-76
2022/03/05 05:07:15;;;;;;;15.17;7.90;;;0.70;99.90;;;;;;5072409;28;20763;-76
2022/03/05 05:09:41;;;;;;;11.40;6.80;;;0.70;99.90;;;;;;5054003;28;20217;-76
2022/03/05 05:12:08;;;;;;;15.27;6.90;;;0.60;99.90;;;;;;5072541;28;20592;-76
2022/03/05 05:14:34;;;;;;;11.77;7.03;;;0.60;99.90;;;;;;5054009;28;20346;-76
2022/03/05 05:16:59;;;;;;;13.33;7.73;;;0.60;99.90;;;;;;5073233;28;20251;-76
2022/03/05 05:19:25;;;;;;;15.43;7.20;;;0.60;99.90;;;;;;5070535;28;20217;-76
2022/03/05 05:21:52;;;;;;;12.13;6.53;;;0.60;99.90;;;;;;5046260;28;20301;-76
2022/03/05 05:24:17;;;;;;;16.17;7.23;;;0.70;99.90;;;;;;5054414;28;20320;-76
2022/03/05 05:26:44;;;;;;;15.83;7.67;;;0.70;99.90;;;;;;5072299;28;20228;-76
2022/03/05 05:29:09;;;;;;;14.43;7.50;;;0.70;99.90;;;;;;5070902;28;20205;-76
2022/03/05 05:31:35;;;;;;;14.57;8.23;;;0.70;99.90;;;;;;5059850;22;20224;-71
2022/03/05 05:34:01;;;;;;;13.43;6.67;;;0.60;99.90;;;;;;5050067;28;20208;-71
2022/03/05 05:36:26;;;;;;;14.37;7.73;;;0.60;99.90;;;;;;5053192;28;20243;-69
2022/03/05 05:38:52;;;;;;;17.23;8.37;;;0.60;99.90;;;;;;5049574;28;20294;-72
2022/03/05 05:41:18;;;;;;;13.10;7.67;;;0.60;99.90;;;;;;5050287;28;20211;-71
2022/03/05 05:43:44;;;;;;;14.80;8.17;;;0.60;99.90;;;;;;5050398;28;20701;-71
2022/03/05 05:46:11;;;;;;;16.63;8.57;;;0.60;99.90;;;;;;5050337;28;20305;-71
2022/03/05 05:48:36;;;;;;;13.77;7.33;;;0.60;99.90;;;;;;5033699;28;20759;-72
2022/03/05 05:51:02;;;;;;;16.23;7.83;;;0.70;99.90;;;;;;5023786;28;20218;-71
2022/03/05 05:53:27;;;;;;;15.93;7.27;;;0.60;99.90;;;;;;5050014;28;20529;-71
2022/03/05 05:55:54;;;;;;;19.07;8.03;;;0.70;99.90;;;;;;5050603;28;20284;-71
2022/03/05 05:58:20;;;;;;;14.77;7.43;;;0.70;99.90;;;;;;5046792;28;20622;-71
2022/03/05 06:00:47;;;;;;;16.03;7.60;;;0.70;99.90;;;;;;5022738;28;20718;-70
2022/03/05 06:03:14;;;;;;;15.23;7.13;;;0.70;99.90;;;;;;5049927;28;20666;-71
2022/03/05 06:05:39;;;;;;;16.70;7.60;;;0.80;99.90;;;;;;5049905;28;20231;-72
2022/03/05 06:08:05;;;;;;;15.53;7.47;;;0.80;99.90;;;;;;5050062;28;20174;-72
2022/03/05 06:10:30;;;;;;;13.97;6.97;;;0.80;99.90;;;;;;5050481;28;20588;-71
2022/03/05 06:12:56;;;;;;;14.00;7.53;;;0.90;99.90;;;;;;5048598;28;20684;-71
2022/03/05 06:15:22;;;;;;;11.90;7.07;;;1.00;99.90;;;;;;5050275;28;20212;-71
2022/03/05 06:17:47;;;;;;;17.97;8.10;;;1.00;99.90;;;;;;5049249;28;20202;-71
2022/03/05 06:20:13;;;;;;;12.63;7.80;;;1.10;99.90;;;;;;5049686;28;20564;-71
2022/03/05 06:22:39;;;;;;;13.73;7.87;;;1.60;99.90;;;;;;5050174;28;20172;-72
2022/03/05 06:25:05;;;;;;;15.37;6.57;;;4.10;99.90;;;;;;5050119;28;20264;-72
2022/03/05 06:27:31;;;;;;;11.73;6.10;;;5.70;99.90;;;;;;5050012;28;20575;-72
2022/03/05 06:29:56;;;;;;;11.07;6.17;;;7.00;99.90;;;;;;5033002;28;20206;-72
2022/03/05 06:32:22;;;;;;;10.67;6.33;;;8.40;99.90;;;;;;5049717;28;20202;-72
2022/03/05 06:34:48;;;;;;;12.53;6.57;;;8.50;99.90;;;;;;5032627;28;20241;-72
2022/03/05 06:37:14;;;;;;;11.63;5.73;;;9.10;99.90;;;;;;5050017;28;20208;-73
2022/03/05 06:39:39;;;;;;;11.97;6.43;;;10.00;99.90;;;;;;5048906;28;20207;-73
2022/03/05 06:42:06;;;;;;;14.13;6.60;;;10.70;99.90;;;;;;5031991;28;20256;-72
2022/03/05 06:44:31;;;;;;;8.63;6.53;;;11.00;99.90;;;;;;5049838;28;20211;-72
2022/03/05 06:46:58;;;;;;;11.57;6.33;;;10.40;99.90;;;;;;5050349;28;20172;-72
2022/03/05 06:49:23;;;;;;;13.57;7.03;;;10.30;99.90;;;;;;5048713;28;20204;-72
2022/03/05 06:51:49;;;;;;;11.13;6.77;;;10.20;99.90;;;;;;5050961;28;20282;-72
2022/03/05 06:54:15;;;;;;;11.50;7.23;;;10.70;99.90;;;;;;5053152;28;20264;-72
2022/03/05 06:56:40;;;;;;;13.50;7.10;;;11.00;99.90;;;;;;5035168;28;20340;-72
2022/03/05 06:59:06;;;;;;;12.03;7.87;;;9.80;99.90;;;;;;5023931;28;20180;-72
2022/03/05 07:01:31;;;;;;;10.97;7.03;;;10.70;99.90;;;;;;5049569;28;20203;-72
2022/03/05 07:03:57;;;;;;;11.57;6.83;;;10.80;99.90;;;;;;5053007;28;20227;-72
2022/03/05 07:06:22;;;;;;;11.23;6.87;;;10.40;99.90;;;;;;5053065;28;20203;-72
2022/03/05 07:08:48;;;;;;;11.03;6.10;;;11.90;99.90;;;;;;5044924;28;20681;-72
2022/03/05 07:11:13;;;;;;;13.70;7.00;;;12.50;99.90;;;;;;5026463;28;20191;-72
2022/03/05 07:13:39;;;;;;;13.27;7.57;;;12.00;99.90;;;;;;5051939;28;20222;-72
2022/03/05 07:16:05;;;;;;;10.20;6.40;;;11.60;99.90;;;;;;5052715;28;20625;-72
2022/03/05 07:18:31;;;;;;;12.23;6.97;;;12.50;99.90;;;;;;5051969;28;20215;-72
2022/03/05 07:20:57;;;;;;;11.17;6.83;;;12.80;99.90;;;;;;5052844;28;20195;-72
2022/03/05 07:23:23;;;;;;;13.57;7.03;;;13.10;99.90;;;;;;5034918;28;20175;-73
2022/03/05 07:25:48;;;;;;;9.03;6.60;;;12.80;99.90;;;;;;5053139;28;20614;-72
2022/03/05 07:28:14;;;;;;;12.73;8.10;;;13.00;99.90;;;;;;5051882;28;20203;-73
2022/03/05 07:30:40;;;;;;;16.48;7.53;;;13.00;99.90;;;;;;5019932;28;20246;-72
2022/03/05 07:33:06;;;;;;;11.43;6.88;;;12.70;99.90;;;;;;5052439;28;20211;-72
2022/03/05 07:35:32;;;;;;;11.32;7.22;;;12.60;99.90;;;;;;5034653;28;20596;-72
2022/03/05 07:37:58;;;;;;;14.23;8.00;;;11.90;99.90;;;;;;5052429;28;20202;-72
2022/03/05 07:40:23;;;;;;;16.63;10.25;;;11.20;99.90;;;;;;5051168;28;20235;-72
2022/03/05 07:42:49;;;;;;;13.80;8.02;;;11.90;99.90;;;;;;5052452;28;20718;-73
2022/03/05 07:45:14;;;;;;;18.40;11.65;;;12.30;99.90;;;;;;5050910;28;20196;-72
2022/03/05 07:47:40;;;;;;;12.90;7.68;;;12.30;99.90;;;;;;5052023;28;20242;-72
2022/03/05 07:50:06;;;;;;;13.70;8.30;;;12.50;99.90;;;;;;5051141;28;20202;-73
2022/03/05 07:52:31;;;;;;;14.30;7.37;;;12.30;99.90;;;;;;5052354;28;20640;-73
2022/03/05 07:54:57;;;;;;;13.73;7.10;;;12.60;99.90;;;;;;5052484;28;20211;-73
2022/03/05 07:57:22;;;;;;;12.07;7.20;;;12.10;99.90;;;;;;5052506;28;20208;-72
2022/03/05 07:59:48;;;;;;;14.57;8.70;;;12.00;99.90;;;;;;5036760;28;20245;-72
2022/03/05 08:02:16;;;;;;;14.27;8.27;;;12.00;99.90;;;;;;5050995;28;20199;-73
2022/03/05 08:04:44;;;;;;;13.10;7.97;;;11.90;99.90;;;;;;5034884;28;20191;-73
2022/03/05 08:07:09;;;;;;;10.83;6.97;;;11.60;99.90;;;;;;5034466;28;20694;-73
2022/03/05 08:09:38;;;;;;;15.70;8.77;;;12.00;99.90;;;;;;5051265;28;20210;-73
2022/03/05 08:12:04;;;;;;;13.80;8.03;;;12.20;99.90;;;;;;5051853;28;20717;-73
2022/03/05 08:14:29;;;;;;;13.13;8.13;;;12.30;99.90;;;;;;5051463;28;20211;-73
2022/03/05 08:16:55;;;;;;;13.27;7.37;;;12.20;99.90;;;;;;5052182;28;20683;-73
2022/03/05 08:19:20;;;;;;;14.60;8.33;;;12.20;99.90;;;;;;5050540;28;20206;-73
2022/03/05 08:21:46;;;;;;;12.13;8.13;;;12.70;99.90;;;;;;5051709;28;20578;-73
2022/03/05 08:24:11;;;;;;;12.40;7.40;;;11.00;99.90;;;;;;5033535;28;20214;-73
2022/03/05 08:26:37;;;;;;;13.10;7.83;;;12.10;99.90;;;;;;5051718;28;20282;-73
2022/03/05 08:29:03;;;;;;;14.73;7.70;;;12.00;99.90;;;;;;5041283;28;20224;-72
2022/03/05 08:31:31;;;;;;;15.07;8.00;;;12.00;99.90;;;;;;5044413;28;20226;-72
2022/03/05 08:33:58;;;;;;;12.53;7.43;;;12.10;99.90;;;;;;5051253;28;20231;-72
2022/03/05 08:36:24;;;;;;;13.23;7.67;;;12.20;99.90;;;;;;5033433;28;20247;-73
2022/03/05 08:38:49;;;;;;;12.57;7.83;;;11.50;99.90;;;;;;5032494;28;20239;-72
2022/03/05 08:41:15;;;;;;;15.90;9.33;;;11.70;99.90;;;;;;5050866;28;20236;-72
2022/03/05 08:43:42;;;;;;;14.20;8.13;;;11.60;99.90;;;;;;5051493;28;20672;-73
2022/03/05 08:46:08;;;;;;;11.30;7.60;;;11.80;99.90;;;;;;5051115;28;20195;-73
2022/03/05 08:48:34;;;;;;;14.43;8.40;;;11.50;99.90;;;;;;5050259;28;20204;-73
2022/03/05 08:50:59;;;;;;;12.07;8.00;;;10.70;99.90;;;;;;5054122;28;20203;-73
2022/03/05 08:53:25;;;;;;;15.27;8.47;;;10.50;99.90;;;;;;5053480;28;20179;-72
2022/03/05 08:55:51;;;;;;;13.17;7.70;;;10.20;99.90;;;;;;5052316;28;20196;-73
2022/03/05 08:58:16;;;;;;;11.93;8.00;;;10.30;99.90;;;;;;5050093;28;20211;-72
2022/03/05 09:00:42;;;;;;;15.37;9.67;;;10.30;99.90;;;;;;5018630;28;20234;-72
2022/03/05 09:03:07;;;;;;;14.47;8.53;;;9.40;99.90;;;;;;5050828;28;20656;-73
2022/03/05 09:05:33;;;;;;;13.40;8.90;;;9.10;99.90;;;;;;5049980;28;20207;-72
2022/03/05 09:07:58;;;;;;;13.07;7.80;;;10.00;99.90;;;;;;5051056;28;20396;-72
2022/03/05 09:10:24;;;;;;;13.57;8.33;;;9.80;99.90;;;;;;5050833;28;20307;-73
2022/03/05 09:12:49;;;;;;;14.93;8.40;;;9.40;99.90;;;;;;5050832;28;20615;-73
2022/03/05 09:15:16;;;;;;;16.60;9.50;;;9.70;99.90;;;;;;5050302;28;20222;-72
2022/03/05 09:17:42;;;;;;;16.83;9.97;;;9.60;99.90;;;;;;5050215;28;20298;-72
2022/03/05 09:20:09;;;;;;;16.47;9.33;;;9.50;99.90;;;;;;5050078;28;20230;-72
2022/03/05 09:22:35;;;;;;;16.97;8.73;;;8.80;99.90;;;;;;5033023;28;20528;-73
2022/03/05 09:25:01;;;;;;;13.83;8.17;;;9.00;99.90;;;;;;5050365;28;20317;-74
2022/03/05 09:27:26;;;;;;;13.20;8.63;;;9.40;99.90;;;;;;5050053;28;20243;-70
2022/03/05 09:29:52;;;;;;;17.43;9.13;;;10.30;99.90;;;;;;5017039;28;20707;-69
2022/03/05 09:32:17;;;;;;;16.30;8.33;;;10.20;99.90;;;;;;5032513;28;20179;-73
2022/03/05 09:34:43;;;;;;;12.87;8.53;;;10.20;99.90;;;;;;5032402;28;20664;-73
2022/03/05 09:37:08;;;;;;;16.83;8.70;;;9.60;99.90;;;;;;5050167;28;20192;-72
2022/03/05 09:39:36;;;;;;;17.57;9.07;;;9.20;99.90;;;;;;5014797;28;20658;-73
2022/03/05 09:42:04;;;;;;;15.37;8.73;;;9.40;99.90;;;;;;5045727;28;20294;-73
2022/03/05 09:44:30;;;;;;;14.30;8.73;;;9.30;99.90;;;;;;5050076;28;20290;-73
2022/03/05 09:46:57;;;;;;;13.63;8.63;;;9.10;99.90;;;;;;5050565;28;20221;-74
2022/03/05 09:49:26;;;;;;;14.83;8.47;;;9.90;99.90;;;;;;5048888;28;20215;-73
2022/03/05 09:51:53;;;;;;;10.70;8.40;;;9.40;99.90;;;;;;5050100;28;20215;-74
2022/03/05 09:54:18;;;;;;;14.97;9.20;;;10.10;99.90;;;;;;5048936;28;20211;-74
2022/03/05 09:56:44;;;;;;;14.43;9.07;;;10.20;99.90;;;;;;5049896;28;20269;-73
2022/03/05 09:59:10;;;;;;;15.10;9.07;;;8.70;99.90;;;;;;5036629;28;20184;-73
2022/03/05 10:01:36;;;;;;;15.67;9.13;;;8.70;99.90;;;;;;5047643;28;20211;-74
2022/03/05 10:04:02;;;;;;;13.67;8.37;;;8.80;99.90;;;;;;5050175;28;20207;-74
2022/03/05 10:06:28;;;;;;;12.90;8.73;;;9.00;99.90;;;;;;5049794;28;20227;-74
2022/03/05 10:08:57;;;;;;;14.60;9.37;;;9.10;99.90;;;;;;5049275;28;20211;-73
2022/03/05 10:11:37;;;;;;;15.47;8.13;;;9.40;99.90;;;;;;5049732;28;20221;-73
2022/03/05 10:14:17;;;;;;;14.43;8.47;;;9.50;99.90;;;;;;5032495;28;20267;-73
2022/03/05 10:16:43;;;;;;;12.07;7.63;;;9.20;99.90;;;;;;5048972;28;20226;-73
2022/03/05 10:19:18;;;;;;;12.77;8.33;;;9.60;99.90;;;;;;5049588;28;20610;-73
2022/03/05 10:22:08;;;;;;;17.03;8.07;;;10.00;99.90;;;;;;5049505;28;20211;-73
2022/03/05 10:24:39;;;;;;;15.00;8.67;;;10.60;99.90;;;;;;5049899;28;20208;-73
2022/03/05 10:27:07;;;;;;;11.07;7.97;;;9.50;99.90;;;;;;5033851;28;20207;-73
2022/03/05 10:29:36;;;;;;;13.53;8.23;;;9.20;99.90;;;;;;5038330;28;20216;-74
2022/03/05 10:32:03;;;;;;;12.00;7.83;;;9.40;99.90;;;;;;5054135;28;20211;-73
2022/03/05 10:34:50;;;;;;;14.23;8.20;;;9.10;99.90;;;;;;5035809;28;20676;-73
2022/03/05 10:37:16;;;;;;;14.20;8.53;;;9.40;99.90;;;;;;5053495;28;20613;-74
2022/03/05 10:39:43;;;;;;;12.83;8.67;;;9.40;99.90;;;;;;5030986;28;20223;-73
2022/03/05 10:42:22;;;;;;;11.97;7.50;;;8.70;99.90;;;;;;5048274;28;20200;-73
2022/03/05 10:45:06;;;;;;;14.63;8.97;;;7.90;99.90;;;;;;5034894;28;20211;-73
2022/03/05 10:47:43;;;;;;;14.50;8.73;;;7.50;99.90;;;;;;5053230;28;20204;-72
2022/03/05 10:50:26;;;;;;;13.57;8.23;;;7.60;99.90;;;;;;5035089;28;20188;-75
2022/03/05 10:52:56;;;;;;;12.77;8.13;;;7.80;99.90;;;;;;5039110;28;20168;-74
2022/03/05 10:55:27;;;;;;;16.60;8.93;;;7.90;99.90;;;;;;5053008;28;20212;-75
2022/03/05 10:58:22;;;;;;;15.27;9.17;;;7.50;99.90;;;;;;5035198;28;20204;-73
2022/03/05 11:00:50;;;;;;;14.70;8.60;;;7.40;99.90;;;;;;5025591;28;20696;-73
2022/03/05 11:03:17;;;;;;;13.10;8.27;;;7.00;99.90;;;;;;5052806;28;20199;-74
2022/03/05 11:05:43;;;;;;;13.87;8.77;;;6.70;99.90;;;;;;5053276;28;20211;-73
2022/03/05 11:08:09;;;;;;;13.53;8.57;;;6.60;99.90;;;;;;5050963;28;20175;-73
2022/03/05 11:10:34;;;;;;;12.90;7.97;;;6.40;99.90;;;;;;5053614;28;20324;-73
2022/03/05 11:13:03;;;;;;;14.40;8.73;;;6.30;99.90;;;;;;5053104;28;20237;-73
2022/03/05 11:15:32;;;;;;;16.63;8.90;;;6.30;99.90;;;;;;5052780;28;20302;-71
2022/03/05 11:17:58;;;;;;;14.20;8.90;;;6.40;99.90;;;;;;5013231;28;20207;-72
2022/03/05 11:20:25;;;;;;;13.02;9.20;;;6.60;99.90;;;;;;5033678;28;20419;-75
2022/03/05 11:22:51;;;;;;;12.30;7.67;;;6.40;99.90;;;;;;5054087;28;20730;-74
2022/03/05 11:25:22;;;;;;;14.27;7.53;;;6.60;99.90;;;;;;5054431;28;20207;-73
2022/03/05 11:28:10;;;;;;;9.70;6.97;;;7.40;99.90;;;;;;5036185;28;20208;-72
2022/03/05 11:30:44;;;;;;;11.07;7.40;;;8.00;99.90;;;;;;5044879;22;21266;-76
2022/03/05 11:33:20;;;;;;;11.03;7.10;;;8.20;99.90;;;;;;5049295;28;20211;-75
2022/03/05 11:35:45;;;;;;;10.20;6.60;;;8.10;99.90;;;;;;5039754;28;20593;-77
2022/03/05 11:38:36;;;;;;;11.17;7.07;;;8.20;99.90;;;;;;5061757;28;20184;-79
2022/03/05 11:41:25;;;;;;;9.30;6.37;;;8.50;99.90;;;;;;5056274;28;20195;-77
2022/03/05 11:43:51;;;;;;;8.37;6.53;;;8.60;99.90;;;;;;5072793;28;20625;-73
2022/03/05 11:46:25;;;;;;;13.83;7.40;;;9.10;99.90;;;;;;5073331;28;20236;-73
2022/03/05 11:49:07;;;;;;;10.40;6.13;;;9.30;99.90;;;;;;5057471;28;20667;-77
2022/03/05 11:51:34;;;;;;;10.30;6.10;;;9.60;99.90;;;;;;5069242;28;20216;-77
2022/03/05 11:54:13;;;;;;;8.90;5.90;;;9.20;99.90;;;;;;5050970;28;20199;-77
2022/03/05 11:56:50;;;;;;;9.47;6.70;;;8.70;99.90;;;;;;5053290;28;20267;-76
2022/03/05 11:59:36;;;;;;;10.13;6.63;;;8.00;99.90;;;;;;5059779;28;20178;-76
2022/03/05 12:02:02;;;;;;;9.70;6.07;;;7.80;99.90;;;;;;5068767;28;20187;-74
2022/03/05 12:04:29;;;;;;;12.10;6.70;;;7.70;99.90;;;;;;5091785;28;20365;-76
2022/03/05 12:06:58;;;;;;;12.97;7.07;;;7.50;99.90;;;;;;5079502;28;20234;-77
2022/03/05 12:09:44;;;;;;;13.77;7.63;;;7.60;99.90;;;;;;5072305;28;20699;-78
2022/03/05 12:12:15;;;;;;;9.47;5.53;;;7.30;99.90;;;;;;5055108;28;20258;-74
2022/03/05 12:14:59;;;;;;;12.80;6.13;;;7.40;99.90;;;;;;5054359;28;20240;-77
2022/03/05 12:17:33;;;;;;;9.40;6.27;;;7.50;99.90;;;;;;5054246;28;20658;-76
2022/03/05 12:19:59;;;;;;;9.67;6.57;;;7.70;99.90;;;;;;5072569;28;20175;-75
2022/03/05 12:22:24;;;;;;;10.03;6.00;;;7.50;99.90;;;;;;5063983;28;20239;-75
2022/03/05 12:24:50;;;;;;;7.23;6.00;;;7.90;99.90;;;;;;5071477;28;20211;-73
2022/03/05 12:27:17;;;;;;;9.83;7.03;;;8.00;99.90;;;;;;5072761;28;20209;-76
2022/03/05 12:29:51;;;;;;;7.47;5.17;;;8.20;99.90;;;;;;5052663;28;20210;-75
2022/03/05 12:32:18;;;;;;;8.73;5.57;;;7.60;99.90;;;;;;5071149;28;20207;-74
2022/03/05 12:34:44;;;;;;;6.93;5.07;;;7.90;99.90;;;;;;5071791;28;20193;-75
2022/03/05 12:37:10;;;;;;;7.83;5.40;;;8.50;99.90;;;;;;5071386;28;20250;-76
2022/03/05 12:39:45;;;;;;;8.43;5.23;;;8.90;99.90;;;;;;5070586;28;20215;-76
2022/03/05 12:42:12;;;;;;;9.07;5.67;;;8.50;99.90;;;;;;5053594;28;20214;-76
2022/03/05 12:44:39;;;;;;;8.00;5.37;;;7.70;99.90;;;;;;5053458;28;20222;-76